createdAt,value
2019-03-26T00:01:09.169Z,99.90
2019-03-26T00:05:14.161Z,99.90
2019-03-26T00:09:19.154Z,99.90
2019-03-26T00:13:24.158Z,99.90
2019-03-26T00:17:29.137Z,99.90
2019-03-26T00:21:34.359Z,99.90
2019-03-26T00:25:40.364Z,99.90
2019-03-26T00:29:45.381Z,99.90
2019-03-26T00:33:50.365Z,99.90
2019-03-26T00:37:55.350Z,99.90
2019-03-26T00:42:00.351Z,99.90
2019-03-26T00:46:05.394Z,99.90
2019-03-26T00:50:10.392Z,99.90
2019-03-26T00:54:15.389Z,99.90
2019-03-26T00:58:20.433Z,99.90
2019-03-26T01:02:25.437Z,99.90
2019-03-26T01:06:30.437Z,99.90
2019-03-26T01:10:35.446Z,99.90
2019-03-26T01:14:40.438Z,99.90
2019-03-26T01:18:45.436Z,99.90
2019-03-26T01:22:50.425Z,99.90
2019-03-26T01:26:55.448Z,99.90
2019-03-26T01:31:00.443Z,99.90
2019-03-26T01:35:08.805Z,99.90
2019-03-26T01:39:14.769Z,99.90
2019-03-26T01:43:19.758Z,99.90
2019-03-26T01:47:24.753Z,99.90
2019-03-26T01:51:29.751Z,99.90
2019-03-26T01:55:34.830Z,99.90
2019-03-26T01:59:39.888Z,99.90
2019-03-26T02:03:44.861Z,99.90
2019-03-26T02:07:49.882Z,99.90
2019-03-26T02:11:54.877Z,99.90
2019-03-26T02:16:00.248Z,99.90
2019-03-26T02:20:06.600Z,99.90
2019-03-26T02:24:11.601Z,99.90
2019-03-26T02:28:16.584Z,99.90
2019-03-26T02:32:21.580Z,99.90
2019-03-26T02:36:26.576Z,99.90
2019-03-26T02:40:31.572Z,99.90
2019-03-26T02:44:36.569Z,99.90
2019-03-26T02:48:41.557Z,99.90
2019-03-26T02:52:46.563Z,99.90
2019-03-26T02:56:51.562Z,99.90
2019-03-26T03:00:56.562Z,99.90
2019-03-26T03:05:01.576Z,99.90
2019-03-26T03:09:07.257Z,99.90
2019-03-26T03:13:12.358Z,99.90
2019-03-26T03:17:17.372Z,99.90
2019-03-26T03:21:22.366Z,99.90
2019-03-26T03:25:28.338Z,99.90
2019-03-26T03:29:33.346Z,99.90
2019-03-26T03:33:38.319Z,99.90
2019-03-26T03:37:43.325Z,99.90
2019-03-26T03:41:48.504Z,99.90
2019-03-26T03:45:53.863Z,99.90
2019-03-26T03:50:01.085Z,99.90
2019-03-26T03:54:08.367Z,99.90
2019-03-26T03:58:14.802Z,99.90
2019-03-26T04:02:19.809Z,99.90
2019-03-26T04:06:24.802Z,99.90
2019-03-26T04:10:29.794Z,99.90
2019-03-26T04:14:34.771Z,99.90
2019-03-26T04:18:39.771Z,99.90
2019-03-26T04:22:44.785Z,99.90
2019-03-26T04:26:49.805Z,99.90
2019-03-26T04:30:54.774Z,99.90
2019-03-26T04:34:59.753Z,99.90
2019-03-26T04:39:06.386Z,99.90
2019-03-26T04:43:11.382Z,99.90
2019-03-26T04:47:16.379Z,99.90
2019-03-26T04:51:21.378Z,99.90
2019-03-26T04:55:26.377Z,99.90
2019-03-26T04:59:31.353Z,99.90
2019-03-26T05:03:36.351Z,99.90
2019-03-26T05:07:41.906Z,99.90
2019-03-26T05:11:46.911Z,99.90
2019-03-26T05:15:52.300Z,99.90
2019-03-26T05:19:57.277Z,99.90
2019-03-26T05:24:02.278Z,99.90
2019-03-26T05:28:07.286Z,99.90
2019-03-26T05:32:12.285Z,99.90
2019-03-26T05:36:17.321Z,99.90
2019-03-26T05:40:22.445Z,99.90
2019-03-26T05:44:27.439Z,99.90
2019-03-26T05:48:32.449Z,99.90
2019-03-26T05:52:38.193Z,99.90
2019-03-26T05:56:43.203Z,99.90
2019-03-26T06:00:48.196Z,99.90
2019-03-26T06:04:53.169Z,99.90
2019-03-26T06:08:58.171Z,99.90
2019-03-26T06:13:03.164Z,99.90
2019-03-26T06:17:08.346Z,99.90
2019-03-26T06:21:15.054Z,99.90
2019-03-26T06:25:20.109Z,99.90
2019-03-26T06:29:25.102Z,99.90
2019-03-26T06:33:30.094Z,99.90
2019-03-26T06:37:35.099Z,99.90
2019-03-26T06:41:40.172Z,99.90
2019-03-26T06:45:45.149Z,99.90
2019-03-26T06:49:50.157Z,99.90
2019-03-26T06:53:55.159Z,99.90
2019-03-26T06:58:00.154Z,99.50
2019-03-26T07:02:05.161Z,99.20
2019-03-26T07:06:10.137Z,98.90
2019-03-26T07:10:18.207Z,98.90
2019-03-26T07:14:23.201Z,98.70
2019-03-26T07:18:28.242Z,98.20
2019-03-26T07:22:34.212Z,97.80
2019-03-26T07:26:39.209Z,97.80
2019-03-26T07:30:45.127Z,98.10
2019-03-26T07:34:50.166Z,98.00
2019-03-26T07:38:56.245Z,97.80
2019-03-26T07:43:01.237Z,98.00
2019-03-26T07:47:06.321Z,97.70
2019-03-26T07:51:11.326Z,97.70
2019-03-26T07:55:16.325Z,97.70
2019-03-26T07:59:21.357Z,97.50
2019-03-26T08:03:26.357Z,97.10
2019-03-26T08:07:31.379Z,96.90
2019-03-26T08:11:36.378Z,95.90
2019-03-26T08:15:41.426Z,95.50
2019-03-26T08:19:46.401Z,95.20
2019-03-26T08:23:51.405Z,95.00
2019-03-26T08:27:56.441Z,95.10
2019-03-26T08:32:01.433Z,94.50
2019-03-26T08:36:06.593Z,94.20
2019-03-26T08:40:11.806Z,92.90
2019-03-26T08:44:16.849Z,93.20
2019-03-26T08:48:22.851Z,93.00
2019-03-26T08:52:27.785Z,93.20
2019-03-26T08:56:32.796Z,92.90
2019-03-26T09:00:37.785Z,92.50
2019-03-26T09:04:42.858Z,92.90
2019-03-26T09:08:47.853Z,92.50
2019-03-26T09:12:52.827Z,92.70
2019-03-26T09:16:57.857Z,91.80
2019-03-26T09:21:02.874Z,92.90
2019-03-26T09:25:09.314Z,93.40
2019-03-26T09:29:14.418Z,93.70
2019-03-26T09:33:19.462Z,93.90
2019-03-26T09:37:24.591Z,93.00
2019-03-26T09:41:29.601Z,91.70
2019-03-26T09:45:34.609Z,91.00
2019-03-26T09:49:39.601Z,90.50
2019-03-26T09:53:44.609Z,89.60
2019-03-26T09:57:49.585Z,90.20
2019-03-26T10:01:54.578Z,90.60
2019-03-26T10:05:59.907Z,90.40
2019-03-26T10:10:09.377Z,88.20
2019-03-26T10:14:14.369Z,87.90
2019-03-26T10:18:20.874Z,86.30
2019-03-26T10:22:26.144Z,85.70
2019-03-26T10:26:31.422Z,83.80
2019-03-26T10:30:39.305Z,84.50
2019-03-26T10:34:44.734Z,86.40
2019-03-26T10:38:50.071Z,86.90
2019-03-26T10:42:55.345Z,87.30
2019-03-26T10:47:00.637Z,84.10
2019-03-26T10:51:06.117Z,79.60
2019-03-26T10:55:11.532Z,72.60
2019-03-26T10:59:16.833Z,70.80
2019-03-26T11:03:22.177Z,68.90
2019-03-26T11:07:27.461Z,62.80
2019-03-26T11:11:32.825Z,59.90
2019-03-26T11:15:38.106Z,59.50
2019-03-26T11:19:46.237Z,63.60
2019-03-26T11:23:50.261Z,63.60
2019-03-26T11:27:55.547Z,61.60
2019-03-26T11:32:00.822Z,59.00
2019-03-26T11:36:07.554Z,58.00
2019-03-26T11:40:13.845Z,57.10
2019-03-26T11:44:19.107Z,53.70
2019-03-26T11:48:24.383Z,51.10
2019-03-26T11:52:29.673Z,50.30
2019-03-26T11:56:34.986Z,49.10
2019-03-26T12:00:40.286Z,49.10
2019-03-26T12:04:46.616Z,48.40
2019-03-26T12:08:51.800Z,49.40
2019-03-26T12:12:57.084Z,49.90
2019-03-26T12:17:02.390Z,50.90
2019-03-26T12:21:07.682Z,49.40
2019-03-26T12:25:13.122Z,49.00
2019-03-26T12:29:18.382Z,47.20
2019-03-26T12:33:23.696Z,48.60
2019-03-26T12:37:28.983Z,48.90
2019-03-26T12:41:34.271Z,48.00
2019-03-26T12:45:39.586Z,49.00
2019-03-26T12:49:44.957Z,47.30
2019-03-26T12:53:50.301Z,47.60
2019-03-26T12:57:56.015Z,48.10
2019-03-26T13:02:01.297Z,48.30
2019-03-26T13:06:06.587Z,49.50
2019-03-26T13:10:14.551Z,50.80
2019-03-26T13:14:19.361Z,54.40
2019-03-26T13:18:24.706Z,53.40
2019-03-26T13:22:30.029Z,50.00
2019-03-26T13:26:35.305Z,49.00
2019-03-26T13:30:40.667Z,50.20
2019-03-26T13:34:45.948Z,52.20
2019-03-26T13:38:51.225Z,54.10
2019-03-26T13:42:56.502Z,52.40
2019-03-26T13:47:01.790Z,50.50
2019-03-26T13:51:08.085Z,50.40
2019-03-26T13:55:14.038Z,52.80
2019-03-26T13:59:19.763Z,51.60
2019-03-26T14:03:25.417Z,51.60
2019-03-26T14:07:31.045Z,53.50
2019-03-26T14:11:36.746Z,55.10
2019-03-26T14:15:43.560Z,57.40
2019-03-26T14:19:49.102Z,59.20
2019-03-26T14:23:54.676Z,59.50
2019-03-26T14:28:00.353Z,59.90
2019-03-26T14:32:06.399Z,60.10
2019-03-26T14:36:12.434Z,61.30
2019-03-26T14:40:17.728Z,62.40
2019-03-26T14:44:23.087Z,63.20
2019-03-26T14:48:29.425Z,64.10
2019-03-26T14:52:36.461Z,65.20
2019-03-26T14:56:41.734Z,66.60
2019-03-26T15:00:47.050Z,67.30
2019-03-26T15:04:52.434Z,67.20
2019-03-26T15:08:57.714Z,67.10
2019-03-26T15:13:03.030Z,67.40
2019-03-26T15:17:08.314Z,66.80
2019-03-26T15:21:13.586Z,66.90
2019-03-26T15:25:20.606Z,66.50
2019-03-26T15:29:25.877Z,64.80
2019-03-26T15:33:33.652Z,64.80
2019-03-26T15:37:38.202Z,64.80
2019-03-26T15:41:43.487Z,65.60
2019-03-26T15:45:48.737Z,66.50
2019-03-26T15:49:54.065Z,66.90
2019-03-26T15:53:59.338Z,68.30
2019-03-26T15:58:04.676Z,69.90
2019-03-26T16:02:09.970Z,70.90
2019-03-26T16:06:15.218Z,72.00
2019-03-26T16:10:20.529Z,73.50
2019-03-26T16:14:28.125Z,74.60
2019-03-26T16:18:32.489Z,76.00
2019-03-26T16:22:37.754Z,77.10
2019-03-26T16:26:43.053Z,77.90
2019-03-26T16:30:48.025Z,79.30
2019-03-26T16:34:53.013Z,80.10
2019-03-26T16:38:58.222Z,81.80
2019-03-26T16:43:03.218Z,83.20
2019-03-26T16:47:08.220Z,84.40
2019-03-26T16:51:13.461Z,85.70
2019-03-26T16:55:18.569Z,87.10
2019-03-26T16:59:23.578Z,87.30
2019-03-26T17:03:31.576Z,87.80
2019-03-26T17:07:36.581Z,88.80
2019-03-26T17:11:41.529Z,89.50
2019-03-26T17:15:46.523Z,90.20
2019-03-26T17:19:51.505Z,90.90
2019-03-26T17:23:56.542Z,91.50
2019-03-26T17:28:01.597Z,91.70
2019-03-26T17:32:07.499Z,92.20
2019-03-26T17:36:12.498Z,93.40
2019-03-26T17:40:19.191Z,94.50
2019-03-26T17:44:24.253Z,94.90
2019-03-26T17:48:29.763Z,95.00
2019-03-26T17:52:34.932Z,95.30
2019-03-26T17:56:39.897Z,95.50
2019-03-26T18:00:45.404Z,95.90
2019-03-26T18:04:51.085Z,95.90
2019-03-26T18:08:58.056Z,96.30
2019-03-26T18:13:03.022Z,97.00
2019-03-26T18:17:08.069Z,97.70
2019-03-26T18:21:13.053Z,98.70
2019-03-26T18:25:18.153Z,99.90
2019-03-26T18:29:23.213Z,99.90
2019-03-26T18:33:28.258Z,99.90
2019-03-26T18:37:33.302Z,99.90
2019-03-26T18:41:38.357Z,99.90
2019-03-26T18:45:44.028Z,99.90
2019-03-26T18:49:49.116Z,99.90
2019-03-26T18:53:54.114Z,99.90
2019-03-26T18:57:59.110Z,99.90
2019-03-26T19:02:04.249Z,99.90
2019-03-26T19:06:09.422Z,99.90
2019-03-26T19:10:32.016Z,99.90
2019-03-26T19:14:37.009Z,99.90
2019-03-26T19:18:42.081Z,99.90
2019-03-26T19:22:47.062Z,99.90
2019-03-26T19:26:52.084Z,99.90
2019-03-26T19:30:57.108Z,99.90
2019-03-26T19:35:02.107Z,99.90
2019-03-26T19:39:09.069Z,99.90
2019-03-26T19:43:14.239Z,99.90
2019-03-26T19:47:20.287Z,99.90
2019-03-26T19:51:25.474Z,99.90
2019-03-26T19:55:31.079Z,99.90
2019-03-26T19:59:36.142Z,99.90
2019-03-26T20:03:41.186Z,99.90
2019-03-26T20:07:48.119Z,99.90
2019-03-26T20:11:54.001Z,99.90
2019-03-26T20:15:59.202Z,99.90
2019-03-26T20:20:05.237Z,99.90
2019-03-26T20:24:10.235Z,99.90
2019-03-26T20:28:15.219Z,99.90
2019-03-26T20:32:20.217Z,99.90
2019-03-26T20:36:25.933Z,99.90
2019-03-26T20:40:31.071Z,99.90
2019-03-26T20:44:36.062Z,99.90
2019-03-26T20:48:41.042Z,99.90
2019-03-26T20:52:46.108Z,99.90
2019-03-26T20:56:51.846Z,99.90
2019-03-26T21:00:56.842Z,99.90
2019-03-26T21:05:01.925Z,99.90
2019-03-26T21:09:07.622Z,99.90
2019-03-26T21:13:12.770Z,99.90
2019-03-26T21:17:18.869Z,99.90
2019-03-26T21:21:23.867Z,99.90
2019-03-26T21:25:28.876Z,99.90
2019-03-26T21:29:33.941Z,99.90
2019-03-26T21:33:38.906Z,99.90
2019-03-26T21:37:44.978Z,99.90
2019-03-26T21:41:50.354Z,99.90
2019-03-26T21:45:55.357Z,99.90
2019-03-26T21:50:00.371Z,99.90
2019-03-26T21:54:05.337Z,99.90
2019-03-26T21:58:10.334Z,99.90
2019-03-26T22:02:15.342Z,99.90
2019-03-26T22:06:20.342Z,99.90
2019-03-26T22:10:25.341Z,99.90
2019-03-26T22:14:30.340Z,99.90
2019-03-26T22:18:35.326Z,99.90
2019-03-26T22:22:40.316Z,99.90
2019-03-26T22:26:45.318Z,99.90
2019-03-26T22:30:50.314Z,99.90
2019-03-26T22:34:55.323Z,99.90
2019-03-26T22:39:00.292Z,99.90
2019-03-26T22:43:05.288Z,99.90
2019-03-26T22:47:10.290Z,99.90
2019-03-26T22:51:15.389Z,99.90
2019-03-26T22:55:20.422Z,99.90
2019-03-26T22:59:25.410Z,99.90
2019-03-26T23:03:30.419Z,99.90
2019-03-26T23:07:35.554Z,99.90
2019-03-26T23:11:40.549Z,99.90
2019-03-26T23:15:45.550Z,99.90
2019-03-26T23:19:50.523Z,99.90
2019-03-26T23:23:55.530Z,99.90
2019-03-26T23:28:00.688Z,99.90
2019-03-26T23:32:05.673Z,99.90
2019-03-26T23:36:11.862Z,99.90
2019-03-26T23:40:17.033Z,99.90
2019-03-26T23:44:26.141Z,99.90
2019-03-26T23:48:28.669Z,99.90
2019-03-26T23:52:33.673Z,99.90
2019-03-26T23:56:38.676Z,99.90
